Time;durP1;ratioP1;P1;durP2;ratioP2;P2;SDS_P1;SDS_P2;PMS_P1;PMS_P2;Temp;Humidity;BMP_temperature;BMP_pressure;BME280_temperature;BME280_humidity;BME280_pressure;Samples;Min_cycle;Max_cycle;Signal;HPM_P1;HPM_P2
2021/08/29 00:02:14;;;;;;;14.50;9.07;;;;;;;;;;4994161;28;20224;-74
2021/08/29 00:04:39;;;;;;;18.80;9.40;;;;;;;;;;4976303;28;20569;-74
2021/08/29 00:07:05;;;;;;;13.98;9.48;;;;;;;;;;4994165;28;20034;-74
2021/08/29 00:09:30;;;;;;;16.95;9.73;;;;;;;;;;4993571;28;20034;-73
2021/08/29 00:11:56;;;;;;;16.92;8.57;;;;;;;;;;4993868;28;20077;-74
2021/08/29 00:14:22;;;;;;;16.52;9.23;;;;;;;;;;4993931;28;20475;-75
2021/08/29 00:16:47;;;;;;;17.70;9.40;;;;;;;;;;4976098;28;20525;-74
2021/08/29 00:19:13;;;;;;;13.70;8.70;;;;;;;;;;4993921;28;20493;-74
2021/08/29 00:21:38;;;;;;;19.00;9.80;;;;;;;;;;4976121;28;20104;-73
2021/08/29 00:24:05;;;;;;;17.33;9.25;;;;;;;;;;4993885;28;20033;-74
2021/08/29 00:26:31;;;;;;;16.30;8.93;;;;;;;;;;4975754;28;20050;-74
2021/08/29 00:28:56;;;;;;;16.33;9.55;;;;;;;;;;4976260;28;20026;-74
2021/08/29 00:31:22;;;;;;;12.55;9.55;;;;;;;;;;4994324;28;20039;-73
2021/08/29 00:33:47;;;;;;;13.25;8.55;;;;;;;;;;4993697;28;20592;-74
2021/08/29 00:36:13;;;;;;;14.73;8.55;;;;;;;;;;4975940;28;20022;-73
2021/08/29 00:38:38;;;;;;;16.42;8.68;;;;;;;;;;4993162;28;20030;-72
2021/08/29 00:41:10;;;;;;;15.93;8.65;;;;;;;;;;4993654;28;20022;-73
2021/08/29 00:43:35;;;;;;;14.65;8.70;;;;;;;;;;4993168;28;20085;-74
2021/08/29 00:46:01;;;;;;;18.38;9.00;;;;;;;;;;4976129;28;20038;-73
2021/08/29 00:48:26;;;;;;;13.07;9.20;;;;;;;;;;4993427;28;20105;-73
2021/08/29 00:50:53;;;;;;;20.23;8.35;;;;;;;;;;4993130;28;20033;-73
2021/08/29 00:53:20;;;;;;;16.35;8.27;;;;;;;;;;4993346;28;20097;-73
2021/08/29 00:55:47;;;;;;;13.85;8.40;;;;;;;;;;4991959;28;20029;-73
2021/08/29 00:58:12;;;;;;;19.23;8.73;;;;;;;;;;4975881;28;20026;-74
2021/08/29 01:00:41;;;;;;;15.48;8.75;;;;;;;;;;4975366;28;20548;-73
2021/08/29 01:03:15;;;;;;;15.27;8.43;;;;;;;;;;4975846;28;20058;-73
2021/08/29 01:05:47;;;;;;;12.15;8.05;;;;;;;;;;4975351;28;20482;-72
2021/08/29 01:08:16;;;;;;;16.55;9.75;;;;;;;;;;4992924;28;20105;-72
2021/08/29 01:10:45;;;;;;;18.83;10.48;;;;;;;;;;4992738;28;20022;-73
2021/08/29 01:13:35;;;;;;;14.57;9.50;;;;;;;;;;4975353;28;20030;-72
2021/08/29 01:16:04;;;;;;;15.52;9.00;;;;;;;;;;4970266;28;20422;-73
2021/08/29 01:18:30;;;;;;;14.95;8.80;;;;;;;;;;4992519;28;20053;-74
2021/08/29 01:21:05;;;;;;;15.60;9.27;;;;;;;;;;4992589;28;20426;-74
2021/08/29 01:23:33;;;;;;;15.68;9.68;;;;;;;;;;4993003;28;20030;-72
2021/08/29 01:26:18;;;;;;;12.05;8.48;;;;;;;;;;4991257;28;20478;-73
2021/08/29 01:28:57;;;;;;;13.30;8.55;;;;;;;;;;4974573;28;20030;-73
2021/08/29 01:31:25;;;;;;;14.57;8.35;;;;;;;;;;4974993;28;20022;-73
2021/08/29 01:33:52;;;;;;;15.38;8.55;;;;;;;;;;4992753;28;20028;-73
2021/08/29 01:36:19;;;;;;;11.38;7.35;;;;;;;;;;4992558;28;20058;-73
2021/08/29 01:38:46;;;;;;;10.57;7.18;;;;;;;;;;4992388;28;20023;-73
2021/08/29 01:41:14;;;;;;;15.07;7.20;;;;;;;;;;4992772;28;20350;-73
2021/08/29 01:43:41;;;;;;;13.55;7.22;;;;;;;;;;4992338;28;20525;-73
2021/08/29 01:46:08;;;;;;;17.50;9.00;;;;;;;;;;4991931;28;20403;-74
2021/08/29 01:48:34;;;;;;;13.52;7.72;;;;;;;;;;4992235;28;20026;-74
2021/08/29 01:51:02;;;;;;;8.32;6.75;;;;;;;;;;4992220;28;20035;-73
2021/08/29 01:53:27;;;;;;;9.80;7.47;;;;;;;;;;4992067;28;20026;-74
2021/08/29 01:55:53;;;;;;;9.68;6.55;;;;;;;;;;4974460;28;20457;-73
2021/08/29 01:58:19;;;;;;;10.70;7.35;;;;;;;;;;4990713;28;20026;-73
2021/08/29 02:00:59;;;;;;;15.85;7.82;;;;;;;;;;4992162;28;20029;-74
2021/08/29 02:03:26;;;;;;;13.43;6.97;;;;;;;;;;4974363;28;20060;-73
2021/08/29 02:06:21;;;;;;;10.82;7.05;;;;;;;;;;4991399;28;20545;-74
2021/08/29 02:08:56;;;;;;;11.10;6.45;;;;;;;;;;4962546;28;20046;-74
2021/08/29 02:11:22;;;;;;;8.13;6.65;;;;;;;;;;4991806;28;20030;-74
2021/08/29 02:13:52;;;;;;;11.07;7.20;;;;;;;;;;4991423;28;20026;-72
2021/08/29 02:16:21;;;;;;;12.40;7.50;;;;;;;;;;4991671;28;20034;-75
2021/08/29 02:18:50;;;;;;;11.73;6.68;;;;;;;;;;4991103;28;20026;-73
2021/08/29 02:21:17;;;;;;;15.30;7.55;;;;;;;;;;4973361;28;20108;-75
2021/08/29 02:23:45;;;;;;;12.85;7.75;;;;;;;;;;4991119;28;20026;-73
2021/08/29 02:26:11;;;;;;;11.43;7.43;;;;;;;;;;4973937;28;20038;-74
2021/08/29 02:28:37;;;;;;;20.13;7.90;;;;;;;;;;4990176;28;20036;-73
2021/08/29 02:31:03;;;;;;;13.75;6.57;;;;;;;;;;4991391;28;20101;-73
2021/08/29 02:33:29;;;;;;;13.05;6.63;;;;;;;;;;4991278;28;20105;-73
2021/08/29 02:35:57;;;;;;;12.07;6.57;;;;;;;;;;4973538;28;20148;-74
2021/08/29 02:38:23;;;;;;;14.73;7.65;;;;;;;;;;4991290;28;20030;-73
2021/08/29 02:40:52;;;;;;;11.85;7.07;;;;;;;;;;4973427;28;20489;-72
2021/08/29 02:43:19;;;;;;;11.38;7.32;;;;;;;;;;4973724;28;20030;-73
2021/08/29 02:45:46;;;;;;;11.32;6.57;;;;;;;;;;4990489;28;20036;-72
2021/08/29 02:48:12;;;;;;;11.70;6.03;;;;;;;;;;4991140;28;20037;-73
2021/08/29 02:50:39;;;;;;;17.15;7.82;;;;;;;;;;4990992;28;20057;-73
2021/08/29 02:53:05;;;;;;;13.68;7.28;;;;;;;;;;4973908;28;20545;-73
2021/08/29 02:55:31;;;;;;;16.52;8.23;;;;;;;;;;4973758;28;20030;-74
2021/08/29 02:58:03;;;;;;;14.40;7.35;;;;;;;;;;4990802;28;20394;-73
2021/08/29 03:00:29;;;;;;;12.05;7.00;;;;;;;;;;4973553;28;20022;-73
2021/08/29 03:02:55;;;;;;;13.45;8.27;;;;;;;;;;4972978;28;20022;-74
2021/08/29 03:05:21;;;;;;;14.25;8.88;;;;;;;;;;4973211;28;20056;-74
2021/08/29 03:07:46;;;;;;;10.98;6.80;;;;;;;;;;4990561;28;20386;-74
2021/08/29 03:10:12;;;;;;;12.55;7.82;;;;;;;;;;4973139;28;20058;-74
2021/08/29 03:12:39;;;;;;;13.20;6.70;;;;;;;;;;4990617;28;20077;-75
2021/08/29 03:15:06;;;;;;;13.85;6.85;;;;;;;;;;4991056;28;20084;-73
2021/08/29 03:17:32;;;;;;;10.23;7.00;;;;;;;;;;4972955;28;20113;-73
2021/08/29 03:20:00;;;;;;;10.13;7.22;;;;;;;;;;4990447;28;20034;-74
2021/08/29 03:22:26;;;;;;;12.50;6.68;;;;;;;;;;4973217;28;20069;-73
2021/08/29 03:24:52;;;;;;;14.27;7.53;;;;;;;;;;4990432;28;20030;-74
2021/08/29 03:27:18;;;;;;;13.13;6.93;;;;;;;;;;4991048;28;20526;-74
2021/08/29 03:29:43;;;;;;;11.18;6.60;;;;;;;;;;4974470;28;20478;-73
2021/08/29 03:32:09;;;;;;;13.45;6.75;;;;;;;;;;4972979;28;20030;-74
2021/08/29 03:34:35;;;;;;;11.25;7.13;;;;;;;;;;4989831;28;20029;-74
2021/08/29 03:37:03;;;;;;;12.70;7.15;;;;;;;;;;4990063;28;20030;-73
2021/08/29 03:39:29;;;;;;;10.98;6.57;;;;;;;;;;4990404;28;20440;-73
2021/08/29 03:41:57;;;;;;;11.13;7.00;;;;;;;;;;4972583;28;20594;-73
2021/08/29 03:44:23;;;;;;;12.10;6.05;;;;;;;;;;4990000;28;20034;-73
2021/08/29 03:46:49;;;;;;;12.05;7.03;;;;;;;;;;4989840;28;20565;-73
2021/08/29 03:49:15;;;;;;;13.05;7.13;;;;;;;;;;4990093;28;20110;-73
2021/08/29 03:51:42;;;;;;;8.40;5.85;;;;;;;;;;4990131;28;20434;-73
2021/08/29 03:54:08;;;;;;;7.70;6.53;;;;;;;;;;4972602;28;20030;-74
2021/08/29 03:56:37;;;;;;;10.02;6.07;;;;;;;;;;4990107;28;20034;-74
2021/08/29 03:59:03;;;;;;;9.68;6.50;;;;;;;;;;4989867;28;20019;-74
2021/08/29 04:01:29;;;;;;;11.88;6.60;;;;;;;;;;4990251;28;20034;-73
2021/08/29 04:03:55;;;;;;;9.13;6.18;;;;;;;;;;4972411;28;20054;-74
2021/08/29 04:06:22;;;;;;;12.18;7.05;;;;;;;;;;4990676;28;20058;-72
2021/08/29 04:08:54;;;;;;;11.05;6.45;;;;;;;;;;4990048;28;20027;-74
2021/08/29 04:11:26;;;;;;;10.70;7.43;;;;;;;;;;4990023;28;20038;-74
2021/08/29 04:13:53;;;;;;;;;;;;;;;;;;4990846;28;20042;-73
2021/08/29 04:16:19;;;;;;;14.10;7.30;;;;;;;;;;4972884;28;19942;-73
2021/08/29 04:18:46;;;;;;;13.60;7.00;;;;;;;;;;4990662;28;20034;-73
2021/08/29 04:21:14;;;;;;;11.20;6.90;;;;;;;;;;4972851;28;20034;-75
2021/08/29 04:23:40;;;;;;;10.18;6.20;;;;;;;;;;4972480;28;20018;-72
2021/08/29 04:26:06;;;;;;;12.38;7.50;;;;;;;;;;4972138;28;20049;-74
2021/08/29 04:28:32;;;;;;;12.65;8.25;;;;;;;;;;4972237;28;20439;-73
2021/08/29 04:31:01;;;;;;;9.23;5.90;;;;;;;;;;4989662;28;20057;-73
2021/08/29 04:33:27;;;;;;;8.65;6.22;;;;;;;;;;4989866;28;20555;-73
2021/08/29 04:35:55;;;;;;;11.25;7.25;;;;;;;;;;4972278;28;20121;-73
2021/08/29 04:38:21;;;;;;;12.27;6.45;;;;;;;;;;4972011;28;20034;-73
2021/08/29 04:40:46;;;;;;;19.00;7.07;;;;;;;;;;4971907;28;20379;-73
2021/08/29 04:43:12;;;;;;;13.57;7.65;;;;;;;;;;4989721;28;20034;-74
2021/08/29 04:45:38;;;;;;;18.48;7.88;;;;;;;;;;4992597;28;20101;-74
2021/08/29 04:48:03;;;;;;;16.67;7.15;;;;;;;;;;4975656;28;20050;-74
2021/08/29 04:50:30;;;;;;;10.98;7.50;;;;;;;;;;4993345;28;20083;-73
2021/08/29 04:52:56;;;;;;;12.77;7.05;;;;;;;;;;4991812;28;20056;-74
2021/08/29 04:55:21;;;;;;;10.35;7.13;;;;;;;;;;4975732;28;20490;-74
2021/08/29 04:57:47;;;;;;;13.65;7.60;;;;;;;;;;4975517;28;20500;-73
2021/08/29 05:00:13;;;;;;;14.80;7.32;;;;;;;;;;4991696;28;20121;-74
2021/08/29 05:02:38;;;;;;;14.07;9.05;;;;;;;;;;4993225;28;20037;-73
2021/08/29 05:05:05;;;;;;;13.90;7.43;;;;;;;;;;4993004;28;20030;-74
2021/08/29 05:07:30;;;;;;;13.93;6.85;;;;;;;;;;4993044;28;20034;-74
2021/08/29 05:09:56;;;;;;;11.65;7.40;;;;;;;;;;4992627;28;20097;-74
2021/08/29 05:12:21;;;;;;;10.95;7.40;;;;;;;;;;4993045;28;20085;-74
2021/08/29 05:14:47;;;;;;;10.73;7.13;;;;;;;;;;4992703;28;20537;-73
2021/08/29 05:17:12;;;;;;;15.63;7.68;;;;;;;;;;4992864;28;20474;-74
2021/08/29 05:19:38;;;;;;;8.85;6.18;;;;;;;;;;4992846;28;20430;-74
2021/08/29 05:22:03;;;;;;;10.55;6.70;;;;;;;;;;4992560;28;20383;-74
2021/08/29 05:24:29;;;;;;;9.90;6.70;;;;;;;;;;4975070;28;20022;-73
2021/08/29 05:26:54;;;;;;;9.10;6.32;;;;;;;;;;4974526;28;20055;-74
2021/08/29 05:29:20;;;;;;;10.73;6.07;;;;;;;;;;4975008;28;20465;-74
2021/08/29 05:31:46;;;;;;;11.10;6.63;;;;;;;;;;4974819;28;20165;-74
2021/08/29 05:34:11;;;;;;;10.05;6.82;;;;;;;;;;4974885;28;20038;-76
2021/08/29 05:36:37;;;;;;;10.27;5.60;;;;;;;;;;4992308;28;20112;-74
2021/08/29 05:39:03;;;;;;;8.70;5.90;;;;;;;;;;4992048;28;20470;-74
2021/08/29 05:41:28;;;;;;;10.07;6.15;;;;;;;;;;4992297;28;20498;-75
2021/08/29 05:43:54;;;;;;;8.40;5.82;;;;;;;;;;4992604;28;20026;-75
2021/08/29 05:46:19;;;;;;;8.57;5.88;;;;;;;;;;4974594;28;20463;-73
2021/08/29 05:48:47;;;;;;;9.00;4.82;;;;;;;;;;4992135;28;20030;-75
2021/08/29 05:51:13;;;;;;;9.88;6.18;;;;;;;;;;4992578;28;20026;-75
2021/08/29 05:53:39;;;;;;;9.30;6.15;;;;;;;;;;4992177;28;20037;-75
2021/08/29 05:56:04;;;;;;;11.63;5.10;;;;;;;;;;4991793;28;20033;-74
2021/08/29 05:58:30;;;;;;;10.00;5.97;;;;;;;;;;4992253;28;20033;-74
2021/08/29 06:00:59;;;;;;;10.10;5.72;;;;;;;;;;4991863;28;20030;-74
2021/08/29 06:03:25;;;;;;;8.10;6.10;;;;;;;;;;4974403;28;20045;-72
2021/08/29 06:05:51;;;;;;;9.82;5.47;;;;;;;;;;4974221;28;20486;-73
2021/08/29 06:08:16;;;;;;;11.07;6.25;;;;;;;;;;4991448;28;20030;-73
2021/08/29 06:10:42;;;;;;;8.55;5.57;;;;;;;;;;4991846;28;20034;-74
2021/08/29 06:13:08;;;;;;;8.05;5.47;;;;;;;;;;4992112;28;20101;-75
2021/08/29 06:15:34;;;;;;;8.93;5.93;;;;;;;;;;4991834;28;20105;-75
2021/08/29 06:17:59;;;;;;;8.23;5.05;;;;;;;;;;4991628;28;20093;-73
2021/08/29 06:20:25;;;;;;;8.00;5.93;;;;;;;;;;4991490;28;20077;-74
2021/08/29 06:22:51;;;;;;;8.63;5.95;;;;;;;;;;4973837;28;20435;-75
2021/08/29 06:25:17;;;;;;;10.07;5.88;;;;;;;;;;4973904;28;20026;-74
2021/08/29 06:27:42;;;;;;;7.68;5.47;;;;;;;;;;4973644;28;20145;-74
2021/08/29 06:30:08;;;;;;;9.65;6.20;;;;;;;;;;4973780;28;20029;-73
2021/08/29 06:32:34;;;;;;;9.18;5.68;;;;;;;;;;4991416;28;20038;-74
2021/08/29 06:35:00;;;;;;;8.90;5.20;;;;;;;;;;4991408;28;20030;-73
2021/08/29 06:37:25;;;;;;;11.00;5.47;;;;;;;;;;4991476;28;20022;-74
2021/08/29 06:39:51;;;;;;;8.57;5.07;;;;;;;;;;4973599;28;20081;-72
2021/08/29 06:42:16;;;;;;;10.55;4.93;;;;;;;;;;4991341;28;20101;-75
2021/08/29 06:44:41;;;;;;;8.40;5.63;;;;;;;;;;4990946;28;20607;-74
2021/08/29 06:47:07;;;;;;;9.48;5.53;;;;;;;;;;4990993;28;20089;-74
2021/08/29 06:49:32;;;;;;;9.43;4.95;;;;;;;;;;4990940;28;20027;-73
2021/08/29 06:51:58;;;;;;;8.20;5.63;;;;;;;;;;4973597;28;20061;-74
2021/08/29 06:54:23;;;;;;;16.30;10.20;;;;;;;;;;4989613;28;20491;-74
2021/08/29 06:56:49;;;;;;;10.57;6.00;;;;;;;;;;4990960;28;20030;-73
2021/08/29 06:59:14;;;;;;;10.10;5.47;;;;;;;;;;4990708;28;20030;-75
2021/08/29 07:01:40;;;;;;;7.13;5.13;;;;;;;;;;4973380;28;20061;-72
2021/08/29 07:04:05;;;;;;;6.40;4.95;;;;;;;;;;4973422;28;20117;-74
2021/08/29 07:06:31;;;;;;;10.15;5.68;;;;;;;;;;4973091;28;20022;-73
2021/08/29 07:08:56;;;;;;;10.70;5.53;;;;;;;;;;4990370;28;20033;-72
2021/08/29 07:11:22;;;;;;;11.50;6.90;;;;;;;;;;4972969;28;20419;-74
2021/08/29 07:13:47;;;;;;;9.00;5.43;;;;;;;;;;4990498;28;20033;-73
2021/08/29 07:16:13;;;;;;;9.25;5.65;;;;;;;;;;4972715;28;20545;-73
2021/08/29 07:18:38;;;;;;;9.70;5.50;;;;;;;;;;4990597;28;20274;-74
2021/08/29 07:21:04;;;;;;;10.80;5.55;;;;;;;;;;4972771;28;20029;-73
2021/08/29 07:23:30;;;;;;;11.23;5.88;;;;;;;;;;4990495;28;20037;-74
2021/08/29 07:25:56;;;;;;;7.35;5.40;;;;;;;;;;4972849;28;20029;-73
2021/08/29 07:28:21;;;;;;;7.43;5.13;;;;;;;;;;4990324;28;20216;-73
2021/08/29 07:30:47;;;;;;;10.43;5.40;;;;;;;;;;4972772;28;20699;-73
2021/08/29 07:33:13;;;;;;;8.00;6.00;;;;;;;;;;4972578;28;20027;-74
2021/08/29 07:35:38;;;;;;;10.75;5.25;;;;;;;;;;4972469;28;20250;-74
2021/08/29 07:38:05;;;;;;;9.38;5.20;;;;;;;;;;4988566;28;20037;-74
2021/08/29 07:40:31;;;;;;;12.27;5.57;;;;;;;;;;4972676;28;20081;-74
2021/08/29 07:42:57;;;;;;;7.68;5.63;;;;;;;;;;4972538;28;20030;-75
2021/08/29 07:45:22;;;;;;;8.02;5.45;;;;;;;;;;4990185;28;20036;-75
2021/08/29 07:47:52;;;;;;;11.18;6.20;;;;;;;;;;4972730;28;20114;-76
2021/08/29 07:50:19;;;;;;;6.70;5.30;;;;;;;;;;4972566;28;20033;-73
2021/08/29 07:52:45;;;;;;;8.40;5.25;;;;;;;;;;4990543;28;20034;-76
2021/08/29 07:55:12;;;;;;;9.15;5.28;;;;;;;;;;4972330;28;20045;-77
2021/08/29 07:57:38;;;;;;;8.00;5.25;;;;;;;;;;4990183;28;20022;-74
2021/08/29 08:00:05;;;;;;;9.07;5.45;;;;;;;;;;4972679;28;20113;-74
2021/08/29 08:02:30;;;;;;;7.95;5.07;;;;;;;;;;4972293;28;20038;-72
2021/08/29 08:04:56;;;;;;;6.72;4.95;;;;;;;;;;4972292;28;20437;-75
2021/08/29 08:07:22;;;;;;;7.10;4.88;;;;;;;;;;4972105;28;20037;-75
2021/08/29 08:09:47;;;;;;;6.70;4.78;;;;;;;;;;4972579;28;20022;-74
2021/08/29 08:12:13;;;;;;;8.85;4.75;;;;;;;;;;4972434;28;20442;-75
2021/08/29 08:14:38;;;;;;;5.55;4.45;;;;;;;;;;4990030;28;20026;-72
2021/08/29 08:17:04;;;;;;;9.52;5.07;;;;;;;;;;4989659;28;20027;-74
2021/08/29 08:19:30;;;;;;;8.50;4.70;;;;;;;;;;4973179;28;20104;-75
2021/08/29 08:21:55;;;;;;;6.35;5.28;;;;;;;;;;4976298;28;20030;-75
2021/08/29 08:24:21;;;;;;;9.77;5.07;;;;;;;;;;4992255;28;20486;-75
2021/08/29 08:26:46;;;;;;;6.65;5.47;;;;;;;;;;4993706;28;20073;-74
2021/08/29 08:29:13;;;;;;;14.73;6.25;;;;;;;;;;4993435;28;20113;-74
2021/08/29 08:31:38;;;;;;;13.77;4.63;;;;;;;;;;4976039;28;20105;-75
2021/08/29 08:34:04;;;;;;;9.07;4.88;;;;;;;;;;4993426;28;20101;-75
2021/08/29 08:36:29;;;;;;;6.55;4.95;;;;;;;;;;4993769;28;20465;-75
2021/08/29 08:38:55;;;;;;;7.97;5.28;;;;;;;;;;4994033;28;20386;-75
2021/08/29 08:41:23;;;;;;;5.20;4.35;;;;;;;;;;4976651;28;20026;-75
2021/08/29 08:43:48;;;;;;;5.45;4.72;;;;;;;;;;4995014;28;20082;-75
2021/08/29 08:46:18;;;;;;;11.63;6.68;;;;;;;;;;4994110;28;20022;-74
2021/08/29 08:48:47;;;;;;;8.38;4.90;;;;;;;;;;4993285;28;20037;-75
2021/08/29 08:51:21;;;;;;;7.55;5.03;;;;;;;;;;4975883;28;20561;-74
2021/08/29 08:53:49;;;;;;;5.20;4.57;;;;;;;;;;4993220;28;20029;-73
2021/08/29 08:56:16;;;;;;;5.60;4.82;;;;;;;;;;4975387;28;20030;-75
2021/08/29 08:58:43;;;;;;;7.47;5.18;;;;;;;;;;4975077;28;20035;-74
2021/08/29 09:01:09;;;;;;;9.57;5.20;;;;;;;;;;4992718;28;20037;-74
2021/08/29 09:03:35;;;;;;;6.13;4.93;;;;;;;;;;4993054;28;20027;-76
2021/08/29 09:06:04;;;;;;;7.40;5.38;;;;;;;;;;4975561;28;20022;-74
2021/08/29 09:08:30;;;;;;;9.63;5.15;;;;;;;;;;4994825;28;20030;-75
2021/08/29 09:10:56;;;;;;;8.98;4.75;;;;;;;;;;4993764;28;20057;-75
2021/08/29 09:13:21;;;;;;;10.00;5.28;;;;;;;;;;4994563;28;20122;-75
2021/08/29 09:15:47;;;;;;;11.25;5.00;;;;;;;;;;4994030;28;20568;-74
2021/08/29 09:18:14;;;;;;;9.65;5.20;;;;;;;;;;4976267;28;20030;-73
2021/08/29 09:20:40;;;;;;;6.72;5.05;;;;;;;;;;4992002;28;20018;-74
2021/08/29 09:23:08;;;;;;;8.05;4.78;;;;;;;;;;4992996;28;20025;-73
2021/08/29 09:25:40;;;;;;;6.20;4.32;;;;;;;;;;4975378;28;20483;-73
2021/08/29 09:28:10;;;;;;;7.13;4.50;;;;;;;;;;4974931;28;20053;-73
2021/08/29 09:30:35;;;;;;;6.47;4.22;;;;;;;;;;4991849;28;20026;-75
2021/08/29 09:33:03;;;;;;;8.55;5.03;;;;;;;;;;4992112;28;20022;-73
2021/08/29 09:35:34;;;;;;;5.88;4.32;;;;;;;;;;4975174;28;20026;-72
2021/08/29 09:38:02;;;;;;;5.47;4.53;;;;;;;;;;4992706;28;20054;-72
2021/08/29 09:40:31;;;;;;;5.35;4.35;;;;;;;;;;4974788;28;20130;-71
2021/08/29 09:42:58;;;;;;;5.22;4.63;;;;;;;;;;4975047;28;20026;-71
2021/08/29 09:45:31;;;;;;;7.10;4.70;;;;;;;;;;4992205;28;20411;-72
2021/08/29 09:48:01;;;;;;;5.68;4.75;;;;;;;;;;4975091;28;20034;-73
2021/08/29 09:50:27;;;;;;;6.60;4.70;;;;;;;;;;4974765;28;20033;-72
2021/08/29 09:53:20;;;;;;;7.30;4.75;;;;;;;;;;4974671;28;20041;-73
2021/08/29 09:55:48;;;;;;;5.88;5.18;;;;;;;;;;4990801;28;20515;-72
2021/08/29 09:58:24;;;;;;;7.35;5.20;;;;;;;;;;4992578;28;20041;-72
2021/08/29 10:01:12;;;;;;;13.48;5.65;;;;;;;;;;4974706;28;20081;-73
2021/08/29 10:03:47;;;;;;;10.85;5.53;;;;;;;;;;4974910;28;20031;-74
2021/08/29 10:06:30;;;;;;;8.68;5.63;;;;;;;;;;4974451;28;20026;-73
2021/08/29 10:09:00;;;;;;;7.55;5.47;;;;;;;;;;4991863;28;20031;-73
2021/08/29 10:11:28;;;;;;;6.38;5.68;;;;;;;;;;4990113;28;20441;-73
2021/08/29 10:13:55;;;;;;;7.43;5.40;;;;;;;;;;4992065;28;20030;-73
2021/08/29 10:16:22;;;;;;;9.48;6.20;;;;;;;;;;4991998;28;20406;-72
2021/08/29 10:18:50;;;;;;;7.05;6.00;;;;;;;;;;4974756;28;20423;-72
2021/08/29 10:21:18;;;;;;;9.32;6.10;;;;;;;;;;4991782;28;20022;-73
2021/08/29 10:23:47;;;;;;;10.68;5.90;;;;;;;;;;4991840;28;20026;-73
2021/08/29 10:26:16;;;;;;;8.00;5.45;;;;;;;;;;4991518;28;20046;-73
2021/08/29 10:28:49;;;;;;;7.40;5.53;;;;;;;;;;4991765;28;20037;-72
2021/08/29 10:31:22;;;;;;;7.32;5.35;;;;;;;;;;4974186;28;20402;-72
2021/08/29 10:33:49;;;;;;;8.55;5.72;;;;;;;;;;4974085;28;20034;-73
2021/08/29 10:36:20;;;;;;;10.70;5.93;;;;;;;;;;4990129;28;20041;-72
2021/08/29 10:38:47;;;;;;;9.30;7.00;;;;;;;;;;4974001;28;20254;-74
2021/08/29 10:41:17;;;;;;;9.65;6.95;;;;;;;;;;4991443;28;20478;-72
2021/08/29 10:43:45;;;;;;;15.85;6.70;;;;;;;;;;4990916;28;20034;-72
2021/08/29 10:46:11;;;;;;;19.83;6.55;;;;;;;;;;4973550;28;20030;-72
2021/08/29 10:48:49;;;;;;;21.95;13.32;;;;;;;;;;4973749;28;20513;-73
2021/08/29 10:51:17;;;;;;;7.60;5.78;;;;;;;;;;4973663;28;20144;-72
2021/08/29 10:53:50;;;;;;;8.63;5.55;;;;;;;;;;4991119;28;20117;-72
2021/08/29 10:56:15;;;;;;;6.63;5.97;;;;;;;;;;4973158;28;20032;-73
2021/08/29 10:58:42;;;;;;;8.80;5.60;;;;;;;;;;4991033;28;20022;-72
2021/08/29 11:01:38;;;;;;;7.45;5.72;;;;;;;;;;4973348;28;20023;-73
2021/08/29 11:04:19;;;;;;;8.13;6.05;;;;;;;;;;4973480;28;20505;-74
2021/08/29 11:06:50;;;;;;;9.05;6.65;;;;;;;;;;4973351;28;20474;-72
2021/08/29 11:09:34;;;;;;;8.02;6.13;;;;;;;;;;4973122;28;20044;-73
2021/08/29 11:12:05;;;;;;;9.82;6.93;;;;;;;;;;4973607;28;20030;-72
2021/08/29 11:14:51;;;;;;;7.50;5.85;;;;;;;;;;4990869;28;20089;-72
2021/08/29 11:17:20;;;;;;;7.10;5.82;;;;;;;;;;4989161;28;20030;-74
2021/08/29 11:19:47;;;;;;;9.38;5.32;;;;;;;;;;4990391;28;20434;-74
2021/08/29 11:22:15;;;;;;;6.28;5.05;;;;;;;;;;4990627;28;20031;-73
2021/08/29 11:24:47;;;;;;;6.05;5.30;;;;;;;;;;4973535;28;20018;-74
2021/08/29 11:27:34;;;;;;;8.73;5.60;;;;;;;;;;4972789;28;20081;-73
2021/08/29 11:30:21;;;;;;;6.65;5.30;;;;;;;;;;4973078;28;20041;-72
2021/08/29 11:32:53;;;;;;;9.10;5.55;;;;;;;;;;4972821;28;20477;-73
2021/08/29 11:35:22;;;;;;;6.60;5.38;;;;;;;;;;4973238;28;20645;-71
2021/08/29 11:38:15;;;;;;;5.35;4.70;;;;;;;;;;4990620;28;20092;-72
2021/08/29 11:41:03;;;;;;;4.65;4.15;;;;;;;;;;4990531;28;20076;-73
2021/08/29 11:43:34;;;;;;;6.10;4.78;;;;;;;;;;4988642;28;20479;-75
2021/08/29 11:46:11;;;;;;;7.88;4.05;;;;;;;;;;4972948;28;20023;-72
2021/08/29 11:48:50;;;;;;;6.50;4.47;;;;;;;;;;4972821;28;20121;-71
2021/08/29 11:51:26;;;;;;;5.60;4.85;;;;;;;;;;4974413;28;20038;-73
2021/08/29 11:53:52;;;;;;;5.32;4.65;;;;;;;;;;4990056;28;20026;-73
2021/08/29 11:56:22;;;;;;;7.40;5.07;;;;;;;;;;4972921;28;20029;-72
2021/08/29 11:58:49;;;;;;;8.48;6.05;;;;;;;;;;4969556;28;20030;-73
2021/08/29 12:01:15;;;;;;;5.88;4.72;;;;;;;;;;4972218;28;20058;-74
2021/08/29 12:03:42;;;;;;;7.35;5.22;;;;;;;;;;4990362;28;20026;-72
2021/08/29 12:06:36;;;;;;;6.00;4.78;;;;;;;;;;4990227;28;20030;-72
2021/08/29 12:09:30;;;;;;;8.35;6.05;;;;;;;;;;4972529;28;20029;-73
2021/08/29 12:11:56;;;;;;;13.55;7.18;;;;;;;;;;4972813;28;20037;-74
2021/08/29 12:14:27;;;;;;;12.93;6.15;;;;;;;;;;4990265;28;20034;-72
2021/08/29 12:16:56;;;;;;;8.70;6.53;;;;;;;;;;4972379;28;20027;-73
2021/08/29 12:19:34;;;;;;;6.93;6.22;;;;;;;;;;4989816;28;20023;-72
2021/08/29 12:22:05;;;;;;;8.13;6.28;;;;;;;;;;4990213;28;20033;-73
2021/08/29 12:24:33;;;;;;;9.73;7.43;;;;;;;;;;4990296;28;20029;-73
2021/08/29 12:27:11;;;;;;;13.52;7.53;;;;;;;;;;4989602;28;20054;-74
2021/08/29 12:29:48;;;;;;;10.35;7.85;;;;;;;;;;4972328;28;20120;-73
2021/08/29 12:32:25;;;;;;;12.82;9.23;;;;;;;;;;4972243;28;20022;-73
2021/08/29 12:35:04;;;;;;;11.70;8.25;;;;;;;;;;4989834;28;20128;-73
2021/08/29 12:37:32;;;;;;;9.50;7.95;;;;;;;;;;4988825;28;20402;-72
2021/08/29 12:40:06;;;;;;;9.52;6.40;;;;;;;;;;4972342;28;20434;-73
2021/08/29 12:42:34;;;;;;;8.63;7.60;;;;;;;;;;4972388;28;20037;-73
2021/08/29 12:45:02;;;;;;;9.00;6.43;;;;;;;;;;4972367;28;20410;-73
2021/08/29 12:47:29;;;;;;;8.65;6.35;;;;;;;;;;4971884;28;20031;-73
2021/08/29 12:49:55;;;;;;;6.75;6.13;;;;;;;;;;4989572;28;20031;-73
2021/08/29 12:52:25;;;;;;;5.55;5.03;;;;;;;;;;4971681;28;20033;-72
2021/08/29 12:54:51;;;;;;;7.50;5.65;;;;;;;;;;4972092;28;20019;-71
2021/08/29 12:57:25;;;;;;;8.77;6.18;;;;;;;;;;4961494;28;20081;-74
2021/08/29 13:00:03;;;;;;;6.65;5.85;;;;;;;;;;4968812;28;20042;-73
2021/08/29 13:02:37;;;;;;;8.65;6.25;;;;;;;;;;4972301;28;20173;-73
2021/08/29 13:05:03;;;;;;;6.28;5.30;;;;;;;;;;4990069;28;20097;-73
2021/08/29 13:07:28;;;;;;;11.32;6.38;;;;;;;;;;4975056;28;20113;-72
2021/08/29 13:09:56;;;;;;;6.80;5.53;;;;;;;;;;4975642;28;20041;-73
2021/08/29 13:12:30;;;;;;;8.05;7.25;;;;;;;;;;4975324;28;20022;-73
2021/08/29 13:14:59;;;;;;;7.35;6.18;;;;;;;;;;4975723;28;20125;-73
2021/08/29 13:17:27;;;;;;;12.77;8.45;;;;;;;;;;4992479;28;20064;-72
2021/08/29 13:19:56;;;;;;;16.63;9.52;;;;;;;;;;4975201;28;20494;-73
2021/08/29 13:22:38;;;;;;;14.32;9.60;;;;;;;;;;4975096;28;20030;-73
2021/08/29 13:25:16;;;;;;;;;;;;;;;;;;4993159;28;20026;-73
2021/08/29 13:27:43;;;;;;;11.80;8.70;;;;;;;;;;4992548;28;20404;-74
2021/08/29 13:30:08;;;;;;;18.02;9.40;;;;;;;;;;4975519;28;20038;-73
2021/08/29 13:32:34;;;;;;;11.30;7.07;;;;;;;;;;4992498;28;20082;-73
2021/08/29 13:35:14;;;;;;;13.15;7.88;;;;;;;;;;4992971;28;20501;-73
2021/08/29 13:37:42;;;;;;;11.15;8.30;;;;;;;;;;4992808;28;20053;-72
2021/08/29 13:40:10;;;;;;;9.80;6.43;;;;;;;;;;4992368;28;20534;-72
2021/08/29 13:42:37;;;;;;;7.93;5.88;;;;;;;;;;4992727;28;20054;-71
2021/08/29 13:45:09;;;;;;;10.75;6.05;;;;;;;;;;4992860;28;20073;-73
2021/08/29 13:47:35;;;;;;;10.73;6.90;;;;;;;;;;4974578;28;20030;-73
2021/08/29 13:50:00;;;;;;;10.15;6.40;;;;;;;;;;4974841;28;20033;-73
2021/08/29 13:52:35;;;;;;;7.75;5.95;;;;;;;;;;4992104;28;20496;-73
2021/08/29 13:55:00;;;;;;;7.60;6.55;;;;;;;;;;4992968;28;20120;-74
2021/08/29 13:57:27;;;;;;;10.15;6.70;;;;;;;;;;4975358;28;20023;-74
2021/08/29 13:59:53;;;;;;;10.75;6.75;;;;;;;;;;4992014;28;20026;-73
2021/08/29 14:02:18;;;;;;;7.07;5.57;;;;;;;;;;4974113;28;20026;-75
2021/08/29 14:04:44;;;;;;;7.97;7.22;;;;;;;;;;4991825;28;20447;-73
2021/08/29 14:07:10;;;;;;;7.22;5.90;;;;;;;;;;4974276;28;20022;-75
2021/08/29 14:09:35;;;;;;;5.38;4.85;;;;;;;;;;4974029;28;20037;-74
2021/08/29 14:12:01;;;;;;;8.38;6.32;;;;;;;;;;4974255;28;20069;-74
2021/08/29 14:14:26;;;;;;;8.20;5.20;;;;;;;;;;4991411;28;20126;-73
2021/08/29 14:16:52;;;;;;;6.57;5.40;;;;;;;;;;4972982;28;20022;-75
2021/08/29 14:19:17;;;;;;;8.07;5.45;;;;;;;;;;4973544;28;20022;-74
2021/08/29 14:21:43;;;;;;;7.85;6.22;;;;;;;;;;4973715;28;20121;-73
2021/08/29 14:24:09;;;;;;;6.15;5.55;;;;;;;;;;4989842;28;20049;-74
2021/08/29 14:26:35;;;;;;;8.15;5.60;;;;;;;;;;4990718;28;20049;-74
2021/08/29 14:29:01;;;;;;;4.82;4.32;;;;;;;;;;4991283;28;20030;-73
2021/08/29 14:31:26;;;;;;;5.47;3.42;;;;;;;;;;4991127;28;20030;-74
2021/08/29 14:33:52;;;;;;;8.73;4.82;;;;;;;;;;4973493;28;20232;-73
2021/08/29 14:36:17;;;;;;;4.90;4.32;;;;;;;;;;4991437;28;20475;-75
2021/08/29 14:38:43;;;;;;;6.20;4.30;;;;;;;;;;4991100;28;20383;-73
2021/08/29 14:41:08;;;;;;;5.90;5.13;;;;;;;;;;4990962;28;20125;-74
2021/08/29 14:43:34;;;;;;;11.00;7.32;;;;;;;;;;4973130;28;20120;-74